Hauptseite
METAR-TAF:

METAR-TAF

Flughäfen :

Flughafen Halmstad

Halmstad, Schweden

Breite: 56-41N, Länge: 012-50E, Höhe: 30 m

Beobachtung

Neuester Wetterbericht von vor 41 Minuten, um 17:50 UTC
Wind 6 kt aus Süd
Temperatur 20°C
Luftfeuchtigkeit 68%
Luftdruck 1013 hPa
Sichtweite 10 km oder mehr

METAR: ESMT 231750Z AUTO 17006KT 9999 FEW045/// SCT060/// BKN081/// 20/14 Q1013

Zeit: 20:31 (18:31 UTC)

Prognose

Neuester Wetterbericht von vor 4 Stunden und 20 Minuten, um 14:11 UTC
Gültige Prognose vom 23 um 15 UTC bis 23 um 19 UTC
Wind 6 kt aus unterschiedlichen Richtungen
Sichtweite 10 km oder mehr
Leicht bewölkt in der Höhe von 4500 ft
Wahrscheinlichkeit 40% :
Zeitweise
vom 23 um 16 UTC bis 23 um 19 UTC
Sichtweite: 2500 m
Aufgelockert bewölkt in der Höhe von 4000 ft, Kumulonimbus.
Regenschauer,

TAF: ESMT 231411Z 2315/2319 VRB06KT 9999 FEW045 PROB40 TEMPO 2316/2319 2500 SHRA SCT040CB

Wetterbeobachtungen und Prognosen von mehr als 4000 Flughäfen (METAR und TAF Bericht).

Die verfügbaren Stationen werden durch gelbe und rote Markierungen auf der Karte dargestellt.

Führen Sie die Maus auf sie, um den Namen der Station zu sehen.

Darauf klicken, um die Beobachtung von Wetterbeobachtungen und Prognosen zu sehen.

Um die Karte zu ändern : klicken Sie auf den grünen Tasten mit einem schwarzen Kreuz Zum Vergrößern, auf den grünen Button mit einem Gedankenstrich zu verkleinern, oder auf die grünen Pfeile für benachbarte Karten.


METAR-TAF: